Time;durP1;ratioP1;P1;durP2;ratioP2;P2;SDS_P1;SDS_P2;PMS_P1;PMS_P2;Temp;Humidity;BMP_temperature;BMP_pressure;BME280_temperature;BME280_humidity;BME280_pressure;Samples;Min_cycle;Max_cycle;Signal;HPM_P1;HPM_P2
2022/06/24 00:01:36;;;;;;;;;6.33;6.00;;;;;-147.17;100.00;-15917.19;5003388;28;51076;-69
2022/06/24 00:04:01;;;;;;;;;8.33;8.00;;;;;-147.17;100.00;-15917.19;5007871;28;51937;-69
2022/06/24 00:06:43;;;;;;;;;7.00;7.00;;;;;-147.17;100.00;-15917.19;5005639;28;50848;-69
2022/06/24 00:09:11;;;;;;;;;7.67;7.67;;;;;-147.17;100.00;-15917.19;4998307;28;51131;-69
2022/06/24 00:11:36;;;;;;;;;7.67;7.00;;;;;-147.17;100.00;-15917.19;4998256;28;51002;-69
2022/06/24 00:14:04;;;;;;;;;6.00;5.33;;;;;-147.17;100.00;-15917.19;5006516;28;51177;-68
2022/06/24 00:16:30;;;;;;;;;6.33;6.33;;;;;-147.17;100.00;-15917.19;5001986;28;51334;-69
2022/06/24 00:19:10;;;;;;;;;5.00;5.00;;;;;-147.17;100.00;-15917.19;5000518;28;51218;-69
2022/06/24 00:21:36;;;;;;;;;7.33;7.00;;;;;-147.17;100.00;-15917.19;5009887;28;50973;-69
2022/06/24 00:24:02;;;;;;;;;6.00;5.00;;;;;-147.17;100.00;-15917.19;5000707;28;51244;-70
2022/06/24 00:26:41;;;;;;;;;6.00;6.00;;;;;-147.17;100.00;-15917.19;5001762;28;51313;-68
2022/06/24 00:29:06;;;;;;;;;6.00;6.00;;;;;-147.17;100.00;-15917.19;5003972;28;51682;-69
2022/06/24 00:31:32;;;;;;;;;6.00;6.00;;;;;-147.17;100.00;-15917.19;5002601;28;51759;-69
2022/06/24 00:33:57;;;;;;;;;6.00;6.00;;;;;-147.17;100.00;-15917.19;5005068;28;51072;-68
2022/06/24 00:36:23;;;;;;;;;7.00;7.00;;;;;-147.17;100.00;-15917.19;5007664;28;51403;-68
2022/06/24 00:38:52;;;;;;;;;6.00;6.00;;;;;-147.17;100.00;-15917.19;5004384;28;51096;-69
2022/06/24 00:41:24;;;;;;;;;5.67;5.33;;;;;-147.17;100.00;-15917.19;4998709;28;51063;-69
2022/06/24 00:43:55;;;;;;;;;6.67;6.00;;;;;-147.17;100.00;-15917.19;5000011;28;51755;-72
2022/06/24 00:46:23;;;;;;;;;6.67;6.67;;;;;-147.17;100.00;-15917.19;5009387;28;51329;-71
2022/06/24 00:48:51;;;;;;;;;7.33;6.00;;;;;-147.17;100.00;-15917.19;5015956;28;54176;-72
2022/06/24 00:51:18;;;;;;;;;6.33;6.00;;;;;-147.17;100.00;-15917.19;4998996;28;51044;-72
2022/06/24 00:53:49;;;;;;;;;6.67;6.00;;;;;-147.17;100.00;-15917.19;5004802;28;51994;-72
2022/06/24 00:56:17;;;;;;;;;6.00;5.33;;;;;-147.17;100.00;-15917.19;5008997;28;50987;-72
2022/06/24 00:58:57;;;;;;;;;5.00;5.00;;;;;-147.17;100.00;-15917.19;5003496;28;51927;-72
2022/06/24 01:01:59;;;;;;;;;4.00;4.00;;;;;-147.17;100.00;-15917.19;5001228;28;51111;-72
2022/06/24 01:04:31;;;;;;;;;6.67;6.00;;;;;-147.17;100.00;-15917.19;4988780;28;51289;-71
2022/06/24 01:06:57;;;;;;;;;5.33;5.33;;;;;-147.17;100.00;-15917.19;5004540;28;51265;-71
2022/06/24 01:09:22;;;;;;;;;4.00;4.00;;;;;-147.17;100.00;-15917.19;5004972;28;51785;-71
2022/06/24 01:11:48;;;;;;;;;5.00;4.33;;;;;-147.17;100.00;-15917.19;4999247;28;51127;-72
2022/06/24 01:14:13;;;;;;;;;6.00;6.00;;;;;-147.17;100.00;-15917.19;5001498;28;51448;-72
2022/06/24 01:16:39;;;;;;;;;6.00;6.00;;;;;-147.17;100.00;-15917.19;5011323;28;51177;-71
2022/06/24 01:19:10;;;;;;;;;4.00;4.00;;;;;-147.17;100.00;-15917.19;5006294;28;52393;-71
2022/06/24 01:21:45;;;;;;;;;5.67;5.00;;;;;-147.17;100.00;-15917.19;5010448;28;50946;-72
2022/06/24 01:24:20;;;;;;;;;3.00;3.00;;;;;-147.17;100.00;-15917.19;5010099;28;51005;-73
2022/06/24 01:26:54;;;;;;;;;5.00;5.00;;;;;-147.17;100.00;-15917.19;5008811;28;51189;-72
2022/06/24 01:29:20;;;;;;;;;6.00;5.67;;;;;-147.17;100.00;-15917.19;5010818;28;52937;-72
2022/06/24 01:31:50;;;;;;;;;5.00;5.00;;;;;-147.17;100.00;-15917.19;5009542;28;51238;-73
2022/06/24 01:34:17;;;;;;;;;5.67;4.67;;;;;-147.17;100.00;-15917.19;5014062;28;52569;-72
2022/06/24 01:36:43;;;;;;;;;5.00;5.00;;;;;-147.17;100.00;-15917.19;4995745;28;51084;-72
2022/06/24 01:39:08;;;;;;;;;5.33;5.00;;;;;-147.17;100.00;-15917.19;5000935;28;51902;-73
2022/06/24 01:41:35;;;;;;;;;5.67;5.67;;;;;-147.17;100.00;-15917.19;5001462;28;51416;-73
2022/06/24 01:44:01;;;;;;;;;5.67;5.67;;;;;-147.17;100.00;-15917.19;5006959;28;51016;-72
2022/06/24 01:46:28;;;;;;;;;5.33;5.33;;;;;-147.17;100.00;-15917.19;5005469;28;51023;-72
2022/06/24 01:48:53;;;;;;;;;4.00;3.67;;;;;-147.17;100.00;-15917.19;5006081;28;52346;-72
2022/06/24 01:51:21;;;;;;;;;5.00;5.00;;;;;-147.17;100.00;-15917.19;5008852;28;51048;-72
2022/06/24 01:53:47;;;;;;;;;4.33;4.33;;;;;-147.17;100.00;-15917.19;5026252;28;52177;-72
2022/06/24 01:56:12;;;;;;;;;7.67;7.67;;;;;-147.17;100.00;-15917.19;5011263;28;51515;-72
2022/06/24 01:58:38;;;;;;;;;7.67;6.67;;;;;-147.17;100.00;-15917.19;5003601;28;52710;-72
2022/06/24 02:01:03;;;;;;;;;8.67;8.00;;;;;-147.17;100.00;-15917.19;5005291;28;51059;-72
2022/06/24 02:03:31;;;;;;;;;5.00;5.00;;;;;-147.17;100.00;-15917.19;4997333;28;51895;-72
2022/06/24 02:06:01;;;;;;;;;9.00;8.00;;;;;-147.17;100.00;-15917.19;5000137;28;51201;-71
2022/06/24 02:08:26;;;;;;;;;6.00;6.00;;;;;-147.17;100.00;-15917.19;4992860;28;52875;-70
2022/06/24 02:13:36;;;;;;;;;7.00;6.67;;;;;-147.17;100.00;-15917.19;5006221;28;51238;-72
2022/06/24 02:16:04;;;;;;;;;5.67;5.67;;;;;-147.17;100.00;-15917.19;5013635;28;51373;-72
2022/06/24 02:18:31;;;;;;;;;5.00;5.00;;;;;-147.17;100.00;-15917.19;4996394;28;52041;-72
2022/06/24 02:20:58;;;;;;;;;5.00;5.00;;;;;-147.17;100.00;-15917.19;5005477;28;51171;-72
2022/06/24 02:23:24;;;;;;;;;6.33;6.33;;;;;-147.17;100.00;-15917.19;5006066;28;51132;-72
2022/06/24 02:25:51;;;;;;;;;5.00;4.00;;;;;-147.17;100.00;-15917.19;4997292;28;51556;-73
2022/06/24 02:28:17;;;;;;;;;6.00;6.00;;;;;-147.17;100.00;-15917.19;5006724;28;51749;-72
2022/06/24 02:30:44;;;;;;;;;5.33;5.00;;;;;-147.17;100.00;-15917.19;4995998;28;51139;-71
2022/06/24 02:33:10;;;;;;;;;4.00;3.33;;;;;-147.17;100.00;-15917.19;5007741;28;51162;-72
2022/06/24 02:35:37;;;;;;;;;6.00;5.00;;;;;-147.17;100.00;-15917.19;5013619;28;50993;-71
2022/06/24 02:38:02;;;;;;;;;7.00;7.00;;;;;-147.17;100.00;-15917.19;4996782;28;52983;-71
2022/06/24 02:40:47;;;;;;;;;6.33;6.00;;;;;-147.17;100.00;-15917.19;5009254;28;51153;-72
2022/06/24 02:43:32;;;;;;;;;4.00;4.00;;;;;-147.17;100.00;-15917.19;5017588;28;51171;-72
2022/06/24 02:46:00;;;;;;;;;4.33;4.33;;;;;-147.17;100.00;-15917.19;5007039;28;51136;-72
2022/06/24 02:48:26;;;;;;;;;5.67;5.67;;;;;-147.17;100.00;-15917.19;4995372;28;51744;-72
2022/06/24 02:50:54;;;;;;;;;4.00;4.00;;;;;-147.17;100.00;-15917.19;5000741;28;51277;-70
2022/06/24 02:53:21;;;;;;;;;5.67;4.67;;;;;-147.17;100.00;-15917.19;5008167;28;51173;-72
2022/06/24 02:55:51;;;;;;;;;5.33;5.33;;;;;-147.17;100.00;-15917.19;5008876;28;50998;-72
2022/06/24 02:58:16;;;;;;;;;5.00;5.00;;;;;-147.17;100.00;-15917.19;5007552;28;51534;-72
2022/06/24 03:00:42;;;;;;;;;7.00;6.00;;;;;-147.17;100.00;-15917.19;5011859;28;51180;-72
2022/06/24 03:03:09;;;;;;;;;5.00;5.00;;;;;-147.17;100.00;-15917.19;5004600;28;51176;-72
2022/06/24 03:05:35;;;;;;;;;6.67;6.00;;;;;-147.17;100.00;-15917.19;5002826;28;51269;-72
2022/06/24 03:08:01;;;;;;;;;5.00;5.00;;;;;-147.17;100.00;-15917.19;4979150;28;53799;-72
2022/06/24 03:10:26;;;;;;;;;4.00;4.00;;;;;-147.17;100.00;-15917.19;5000465;28;51091;-72
2022/06/24 03:12:52;;;;;;;;;6.67;6.67;;;;;-147.17;100.00;-15917.19;5014326;28;51175;-72
2022/06/24 03:15:17;;;;;;;;;6.00;6.00;;;;;-147.17;100.00;-15917.19;5005420;28;51112;-72
2022/06/24 03:17:43;;;;;;;;;5.00;5.00;;;;;-147.17;100.00;-15917.19;5014768;28;51174;-72
2022/06/24 03:20:09;;;;;;;;;5.00;5.00;;;;;-147.17;100.00;-15917.19;5009155;28;51315;-71
2022/06/24 03:22:35;;;;;;;;;5.67;4.33;;;;;-147.17;100.00;-15917.19;4994642;28;51361;-71
2022/06/24 03:25:02;;;;;;;;;4.67;4.00;;;;;-147.17;100.00;-15917.19;4996064;28;51089;-72
2022/06/24 03:27:27;;;;;;;;;5.00;5.00;;;;;-147.17;100.00;-15917.19;5007867;28;52339;-73
2022/06/24 03:29:52;;;;;;;;;4.00;4.00;;;;;-147.17;100.00;-15917.19;5009604;28;51042;-72
2022/06/24 03:32:18;;;;;;;;;5.00;5.00;;;;;-147.17;100.00;-15917.19;5024332;28;51148;-72
2022/06/24 03:34:44;;;;;;;;;5.00;4.00;;;;;-147.17;100.00;-15917.19;5008234;28;51319;-72
2022/06/24 03:37:09;;;;;;;;;5.00;5.00;;;;;-147.17;100.00;-15917.19;5003634;28;51019;-72
2022/06/24 03:39:35;;;;;;;;;3.00;3.00;;;;;-147.17;100.00;-15917.19;5001196;28;51103;-71
2022/06/24 03:42:00;;;;;;;;;4.00;4.00;;;;;-147.17;100.00;-15917.19;4993624;28;50984;-72
2022/06/24 03:44:25;;;;;;;;;6.00;5.33;;;;;-147.17;100.00;-15917.19;4999399;28;50990;-72
2022/06/24 03:46:51;;;;;;;;;7.00;6.00;;;;;-147.17;100.00;-15917.19;5001556;28;51732;-72
2022/06/24 03:49:18;;;;;;;;;6.00;6.00;;;;;-147.17;100.00;-15917.19;5004754;28;51110;-73
2022/06/24 03:51:44;;;;;;;;;5.00;5.00;;;;;-147.17;100.00;-15917.19;4998148;28;51202;-71
2022/06/24 03:54:09;;;;;;;;;5.00;4.67;;;;;-147.17;100.00;-15917.19;5022311;28;51388;-71
2022/06/24 03:56:35;;;;;;;;;5.00;5.00;;;;;-147.17;100.00;-15917.19;5011953;28;52435;-71
2022/06/24 03:59:00;;;;;;;;;5.33;5.00;;;;;-147.17;100.00;-15917.19;5006230;28;51108;-71
2022/06/24 04:01:26;;;;;;;;;5.33;5.33;;;;;-147.17;100.00;-15917.19;5002785;28;51441;-71
2022/06/24 04:03:51;;;;;;;;;6.00;6.00;;;;;-147.17;100.00;-15917.19;4999796;28;51199;-71
2022/06/24 04:06:17;;;;;;;;;7.00;7.00;;;;;-147.17;100.00;-15917.19;5004217;28;51663;-73
2022/06/24 04:08:43;;;;;;;;;5.00;5.00;;;;;-147.17;100.00;-15917.19;5000731;28;50939;-72
2022/06/24 04:11:12;;;;;;;;;5.67;5.67;;;;;-147.17;100.00;-15917.19;5005608;28;51065;-72
2022/06/24 04:13:38;;;;;;;;;6.33;6.33;;;;;-147.17;100.00;-15917.19;5013480;28;51421;-74
2022/06/24 04:16:04;;;;;;;;;5.33;5.33;;;;;-147.17;100.00;-15917.19;5001063;28;51053;-71
2022/06/24 04:18:29;;;;;;;;;7.00;7.00;;;;;-147.17;100.00;-15917.19;5003520;28;51074;-72
2022/06/24 04:20:54;;;;;;;;;6.00;6.00;;;;;-147.17;100.00;-15917.19;5004942;28;51286;-72
2022/06/24 04:23:20;;;;;;;;;7.00;6.33;;;;;-147.17;100.00;-15917.19;5006406;28;51449;-73
2022/06/24 04:25:49;;;;;;;;;7.00;7.00;;;;;-147.17;100.00;-15917.19;4995840;28;51137;-72
2022/06/24 04:28:14;;;;;;;;;6.00;6.00;;;;;-147.17;100.00;-15917.19;5006300;28;51184;-71
2022/06/24 04:30:40;;;;;;;;;8.00;7.67;;;;;-147.17;100.00;-15917.19;5007989;28;51186;-71
2022/06/24 04:33:05;;;;;;;;;6.00;6.00;;;;;-147.17;100.00;-15917.19;5004202;28;51361;-71
2022/06/24 04:35:30;;;;;;;;;5.67;5.67;;;;;-147.17;100.00;-15917.19;5012439;28;55342;-71
2022/06/24 04:37:56;;;;;;;;;7.00;7.00;;;;;-147.17;100.00;-15917.19;5008858;28;51532;-71
2022/06/24 04:40:22;;;;;;;;;6.00;6.00;;;;;-147.17;100.00;-15917.19;5005171;28;51147;-72
2022/06/24 04:42:47;;;;;;;;;5.33;5.00;;;;;-147.17;100.00;-15917.19;5012378;28;51513;-72
2022/06/24 04:45:13;;;;;;;;;6.00;6.00;;;;;-147.17;100.00;-15917.19;5012300;28;51770;-72
2022/06/24 04:47:39;;;;;;;;;8.00;7.00;;;;;-147.17;100.00;-15917.19;5026175;28;51041;-72
2022/06/24 04:50:05;;;;;;;;;6.67;5.67;;;;;-147.17;100.00;-15917.19;5003953;28;51136;-71
2022/06/24 04:52:31;;;;;;;;;6.00;6.00;;;;;-147.17;100.00;-15917.19;5000412;28;51270;-71
2022/06/24 04:54:57;;;;;;;;;6.00;6.00;;;;;-147.17;100.00;-15917.19;5005855;28;51444;-73
2022/06/24 04:57:22;;;;;;;;;4.67;4.00;;;;;-147.17;100.00;-15917.19;5001828;28;51159;-72
2022/06/24 04:59:47;;;;;;;;;6.33;6.33;;;;;-147.17;100.00;-15917.19;5007866;28;51132;-72
2022/06/24 05:02:13;;;;;;;;;8.33;6.00;;;;;-147.17;100.00;-15917.19;5008440;28;51125;-72
2022/06/24 05:04:38;;;;;;;;;6.33;6.33;;;;;-147.17;100.00;-15917.19;5011625;28;52416;-72
2022/06/24 05:07:05;;;;;;;;;8.00;7.00;;;;;-147.17;100.00;-15917.19;5011492;28;51036;-72
2022/06/24 05:09:30;;;;;;;;;8.00;8.00;;;;;-147.17;100.00;-15917.19;5004930;28;50916;-73
2022/06/24 05:11:55;;;;;;;;;7.00;6.00;;;;;-147.17;100.00;-15917.19;5011394;28;51332;-73
2022/06/24 05:14:21;;;;;;;;;8.00;8.00;;;;;-147.17;100.00;-15917.19;5020492;28;53901;-72
2022/06/24 05:16:47;;;;;;;;;5.67;5.67;;;;;-147.17;100.00;-15917.19;5008370;28;51069;-72
2022/06/24 05:19:12;;;;;;;;;7.67;7.67;;;;;-147.17;100.00;-15917.19;5001701;28;51160;-72
2022/06/24 05:21:38;;;;;;;;;9.00;8.00;;;;;-147.17;100.00;-15917.19;5021994;28;51228;-72
2022/06/24 05:24:04;;;;;;;;;7.00;6.00;;;;;-147.17;100.00;-15917.19;5008463;28;53970;-71
2022/06/24 05:26:29;;;;;;;;;7.33;6.33;;;;;-147.17;100.00;-15917.19;5010945;28;51068;-73
2022/06/24 05:28:55;;;;;;;;;9.00;7.00;;;;;-147.17;100.00;-15917.19;5006656;28;51124;-72
2022/06/24 05:31:20;;;;;;;;;5.67;5.67;;;;;-147.17;100.00;-15917.19;5009192;28;51295;-72
2022/06/24 05:33:45;;;;;;;;;6.33;6.33;;;;;-147.17;100.00;-15917.19;5011213;28;53773;-73
2022/06/24 05:36:11;;;;;;;;;7.33;7.33;;;;;-147.17;100.00;-15917.19;5012310;28;51110;-72
2022/06/24 05:38:37;;;;;;;;;8.67;7.67;;;;;-147.17;100.00;-15917.19;5010633;28;51177;-73
2022/06/24 05:41:03;;;;;;;;;7.00;7.00;;;;;-147.17;100.00;-15917.19;5005213;28;51615;-71
2022/06/24 05:43:29;;;;;;;;;8.33;6.00;;;;;-147.17;100.00;-15917.19;5009351;28;51859;-72
2022/06/24 05:45:55;;;;;;;;;7.00;6.00;;;;;-147.17;100.00;-15917.19;5003655;28;51040;-72
2022/06/24 05:48:20;;;;;;;;;7.33;7.33;;;;;-147.17;100.00;-15917.19;4999055;28;51159;-72
2022/06/24 05:50:46;;;;;;;;;9.00;9.00;;;;;-147.17;100.00;-15917.19;4999643;28;51000;-73
2022/06/24 05:55:58;;;;;;;;;8.33;7.33;;;;;-147.17;100.00;-15917.19;5011877;28;51225;-71
2022/06/24 05:58:27;;;;;;;;;9.00;8.00;;;;;-147.17;100.00;-15917.19;5010552;28;51222;-72
2022/06/24 06:00:56;;;;;;;;;8.00;7.33;;;;;-147.17;100.00;-15917.19;5015401;28;51240;-72
2022/06/24 06:03:25;;;;;;;;;7.00;7.00;;;;;-147.17;100.00;-15917.19;5025832;28;53219;-71
2022/06/24 06:05:51;;;;;;;;;8.33;8.00;;;;;-147.17;100.00;-15917.19;5015063;28;51083;-71
2022/06/24 06:08:17;;;;;;;;;9.00;9.00;;;;;-147.17;100.00;-15917.19;5001809;28;51265;-72
2022/06/24 06:10:43;;;;;;;;;6.00;6.00;;;;;-147.17;100.00;-15917.19;4995899;28;51204;-71
2022/06/24 06:13:13;;;;;;;;;4.67;4.67;;;;;-147.17;100.00;-15917.19;5006130;28;53987;-71
2022/06/24 06:15:40;;;;;;;;;9.00;9.00;;;;;-147.17;100.00;-15917.19;4982751;28;50931;-72
2022/06/24 06:18:06;;;;;;;;;8.00;7.00;;;;;-147.17;100.00;-15917.19;4998274;28;51196;-72
2022/06/24 06:20:31;;;;;;;;;6.67;6.67;;;;;-147.17;100.00;-15917.19;5024597;28;51367;-72
2022/06/24 06:22:57;;;;;;;;;7.00;6.67;;;;;-147.17;100.00;-15917.19;5006153;28;51863;-74
2022/06/24 06:25:22;;;;;;;;;7.67;7.00;;;;;-147.17;100.00;-15917.19;5014827;28;51021;-73
2022/06/24 06:27:49;;;;;;;;;6.33;6.33;;;;;-147.17;100.00;-15917.19;5012766;28;51124;-73
2022/06/24 06:30:15;;;;;;;;;6.67;6.00;;;;;-147.17;100.00;-15917.19;5003889;28;51065;-72
2022/06/24 06:32:40;;;;;;;;;6.00;6.00;;;;;-147.17;100.00;-15917.19;5000002;28;52813;-72
2022/06/24 06:35:06;;;;;;;;;6.33;6.33;;;;;-147.17;100.00;-15917.19;5001277;28;51139;-74
2022/06/24 06:37:32;;;;;;;;;9.00;7.00;;;;;-147.17;100.00;-15917.19;5001064;28;51284;-71
2022/06/24 06:39:58;;;;;;;;;7.33;7.33;;;;;-147.17;100.00;-15917.19;5008176;28;53152;-73
2022/06/24 06:42:23;;;;;;;;;7.00;7.00;;;;;-147.17;100.00;-15917.19;5005166;28;51947;-74
2022/06/24 06:44:48;;;;;;;;;9.00;8.00;;;;;-147.17;100.00;-15917.19;5004676;28;51377;-73
2022/06/24 06:47:14;;;;;;;;;10.33;9.00;;;;;-147.17;100.00;-15917.19;5003078;28;51421;-72
2022/06/24 06:49:39;;;;;;;;;7.00;7.00;;;;;-147.17;100.00;-15917.19;4999947;28;51776;-73
2022/06/24 06:52:05;;;;;;;;;11.00;10.67;;;;;-147.17;100.00;-15917.19;5007119;28;51793;-74
2022/06/24 06:54:30;;;;;;;;;8.33;8.00;;;;;-147.17;100.00;-15917.19;5005207;28;51212;-73
2022/06/24 06:56:56;;;;;;;;;6.67;6.67;;;;;-147.17;100.00;-15917.19;5006452;28;51224;-72
2022/06/24 06:59:22;;;;;;;;;5.00;5.00;;;;;-147.17;100.00;-15917.19;5023840;28;51167;-71
2022/06/24 07:01:48;;;;;;;;;6.00;6.00;;;;;-147.17;100.00;-15917.19;5009668;28;53643;-72
2022/06/24 07:04:14;;;;;;;;;5.00;5.00;;;;;-147.17;100.00;-15917.19;5004105;28;51285;-71
2022/06/24 07:06:39;;;;;;;;;6.00;6.00;;;;;-147.17;100.00;-15917.19;4994604;28;51112;-72
2022/06/24 07:09:05;;;;;;;;;6.00;6.00;;;;;-147.17;100.00;-15917.19;5005814;28;51455;-72
2022/06/24 07:11:30;;;;;;;;;7.00;6.00;;;;;-147.17;100.00;-15917.19;5001132;28;52959;-71
2022/06/24 07:13:55;;;;;;;;;6.00;6.00;;;;;-147.17;100.00;-15917.19;5008084;28;51099;-73
2022/06/24 07:16:21;;;;;;;;;6.00;6.00;;;;;-147.17;100.00;-15917.19;5006872;28;51158;-71
2022/06/24 07:18:47;;;;;;;;;6.67;6.67;;;;;-147.17;100.00;-15917.19;4995848;28;51078;-73
2022/06/24 07:21:13;;;;;;;;;6.00;6.00;;;;;-147.17;100.00;-15917.19;5007799;28;51220;-73
2022/06/24 07:23:39;;;;;;;;;5.00;5.00;;;;;-147.17;100.00;-15917.19;5004231;28;51485;-74
2022/06/24 07:26:05;;;;;;;;;5.00;5.00;;;;;-147.17;100.00;-15917.19;4996815;28;51368;-75
2022/06/24 07:28:31;;;;;;;;;5.33;5.33;;;;;-147.17;100.00;-15917.19;5006638;28;51320;-74
2022/06/24 07:30:56;;;;;;;;;6.67;6.00;;;;;-147.17;100.00;-15917.19;5011267;28;51530;-73
2022/06/24 07:33:23;;;;;;;;;5.67;5.67;;;;;-147.17;100.00;-15917.19;4999945;28;50999;-73
2022/06/24 07:35:49;;;;;;;;;5.00;5.00;;;;;-147.17;100.00;-15917.19;5008782;28;51146;-76
2022/06/24 07:38:15;;;;;;;;;5.00;5.00;;;;;-147.17;100.00;-15917.19;5009902;28;51037;-75
2022/06/24 07:40:40;;;;;;;;;5.00;5.00;;;;;-147.17;100.00;-15917.19;4999350;28;51764;-74
2022/06/24 07:43:06;;;;;;;;;6.00;5.00;;;;;-147.17;100.00;-15917.19;5005132;28;51123;-75
2022/06/24 07:45:31;;;;;;;;;6.33;6.33;;;;;-147.17;100.00;-15917.19;5006161;28;50885;-74
2022/06/24 07:47:56;;;;;;;;;5.00;4.33;;;;;-147.17;100.00;-15917.19;4998262;28;51148;-73
2022/06/24 07:50:22;;;;;;;;;6.00;6.00;;;;;-147.17;100.00;-15917.19;5011419;28;52320;-73
2022/06/24 07:52:48;;;;;;;;;7.33;6.33;;;;;-147.17;100.00;-15917.19;5006524;28;51082;-77
2022/06/24 07:57:58;;;;;;;;;6.00;6.00;;;;;-147.17;100.00;-15917.19;5001503;28;51246;-76
2022/06/24 08:00:23;;;;;;;;;5.33;5.33;;;;;-147.17;100.00;-15917.19;5013920;28;51826;-77
2022/06/24 08:02:48;;;;;;;;;6.00;6.00;;;;;-147.17;100.00;-15917.19;5013954;28;51137;-77
2022/06/24 08:05:15;;;;;;;;;5.33;5.00;;;;;-147.17;100.00;-15917.19;5014596;28;51217;-80
2022/06/24 08:07:40;;;;;;;;;3.00;3.00;;;;;-147.17;100.00;-15917.19;5009320;28;51297;-75
2022/06/24 08:10:06;;;;;;;;;4.00;4.00;;;;;-147.17;100.00;-15917.19;5010036;28;51356;-76
2022/06/24 08:12:32;;;;;;;;;4.00;4.00;;;;;-147.17;100.00;-15917.19;5010984;28;51112;-76
2022/06/24 08:14:57;;;;;;;;;4.33;4.33;;;;;-147.17;100.00;-15917.19;5010713;28;51310;-77
2022/06/24 08:17:22;;;;;;;;;4.00;4.00;;;;;-147.17;100.00;-15917.19;5008503;28;51305;-77
2022/06/24 08:19:48;;;;;;;;;3.67;3.33;;;;;-147.17;100.00;-15917.19;5009019;28;55540;-74
2022/06/24 08:22:13;;;;;;;;;5.00;5.00;;;;;-147.17;100.00;-15917.19;5007568;28;51167;-76
2022/06/24 08:24:40;;;;;;;;;8.33;5.33;;;;;-147.17;100.00;-15917.19;5011558;28;51113;-78
2022/06/24 08:27:06;;;;;;;;;7.67;7.67;;;;;-147.17;100.00;-15917.19;5004231;28;51259;-75
2022/06/24 08:29:31;;;;;;;;;8.00;8.00;;;;;-147.17;100.00;-15917.19;5019998;28;52734;-75
2022/06/24 08:31:57;;;;;;;;;6.67;6.67;;;;;-147.17;100.00;-15917.19;5006219;28;51416;-74
2022/06/24 08:34:22;;;;;;;;;6.67;6.00;;;;;-147.17;100.00;-15917.19;5012060;28;51625;-76
2022/06/24 08:36:48;;;;;;;;;7.00;7.00;;;;;-147.17;100.00;-15917.19;4998003;28;51209;-77
2022/06/24 08:39:14;;;;;;;;;6.67;5.67;;;;;-147.17;100.00;-15917.19;4999669;28;51199;-78
2022/06/24 08:41:45;;;;;;;;;4.00;4.00;;;;;-147.17;100.00;-15917.19;5010728;28;51252;-76
2022/06/24 08:44:11;;;;;;;;;2.33;1.33;;;;;-147.17;100.00;-15917.19;4999399;28;51314;-75
2022/06/24 08:46:39;;;;;;;;;4.00;4.00;;;;;-147.17;100.00;-15917.19;5000274;28;51373;-75
2022/06/24 08:49:05;;;;;;;;;5.00;5.00;;;;;-147.17;100.00;-15917.19;4995610;28;51635;-76
2022/06/24 08:51:33;;;;;;;;;7.00;7.00;;;;;-147.17;100.00;-15917.19;4995592;28;51519;-76
2022/06/24 08:54:01;;;;;;;;;16.75;16.75;;;;;-147.17;100.00;-15917.19;4997046;28;51327;-78
2022/06/24 08:56:27;;;;;;;;;4.00;3.33;;;;;-147.17;100.00;-15917.19;4996247;28;51413;-78
2022/06/24 08:58:53;;;;;;;;;4.00;4.00;;;;;-147.17;100.00;-15917.19;5001236;28;51817;-78
2022/06/24 09:01:19;;;;;;;;;5.00;5.00;;;;;-147.17;100.00;-15917.19;4997555;28;51160;-77
2022/06/24 09:03:44;;;;;;;;;4.00;4.00;;;;;-147.17;100.00;-15917.19;5000746;28;51088;-79
2022/06/24 09:06:14;;;;;;;;;4.00;4.00;;;;;-147.17;100.00;-15917.19;4998796;28;51131;-78
2022/06/24 09:08:44;;;;;;;;;5.00;5.00;;;;;-147.17;100.00;-15917.19;4997555;28;51979;-78
2022/06/24 09:11:13;;;;;;;;;4.67;4.67;;;;;-147.17;100.00;-15917.19;5017678;28;51308;-76
2022/06/24 09:13:52;;;;;;;;;4.00;4.00;;;;;-147.17;100.00;-15917.19;4995981;28;51293;-77
2022/06/24 09:16:18;;;;;;;;;6.00;5.00;;;;;-147.17;100.00;-15917.19;4999664;28;51310;-78
2022/06/24 09:18:51;;;;;;;;;4.33;4.00;;;;;-147.17;100.00;-15917.19;5001906;28;51227;-78
2022/06/24 09:21:25;;;;;;;;;2.00;1.33;;;;;-147.17;100.00;-15917.19;4999272;28;51127;-78
2022/06/24 09:23:55;;;;;;;;;3.00;3.00;;;;;-147.17;100.00;-15917.19;5015962;28;51239;-77
2022/06/24 09:26:30;;;;;;;;;3.00;3.00;;;;;-147.17;100.00;-15917.19;4997809;28;51245;-75
2022/06/24 09:28:56;;;;;;;;;4.00;3.00;;;;;-147.17;100.00;-15917.19;4996210;28;52393;-75
2022/06/24 09:31:24;;;;;;;;;2.33;2.00;;;;;-147.17;100.00;-15917.19;5008645;28;51476;-73
2022/06/24 09:33:50;;;;;;;;;3.00;3.00;;;;;-147.17;100.00;-15917.19;4997134;28;51362;-74
2022/06/24 09:36:16;;;;;;;;;3.67;3.00;;;;;-147.17;100.00;-15917.19;4991686;28;51322;-75
2022/06/24 09:39:03;;;;;;;;;3.33;3.00;;;;;-147.17;100.00;-15917.19;4998547;28;51173;-78
2022/06/24 09:41:30;;;;;;;;;2.67;2.67;;;;;-147.17;100.00;-15917.19;5000393;28;51162;-86
2022/06/24 09:44:01;;;;;;;;;2.67;2.67;;;;;-147.17;100.00;-15917.19;5000679;28;51134;-79
2022/06/24 09:46:26;;;;;;;;;2.33;2.33;;;;;-147.17;100.00;-15917.19;4998617;28;51409;-80
2022/06/24 09:49:01;;;;;;;;;3.67;3.00;;;;;-147.17;100.00;-15917.19;4993702;28;52182;-78
2022/06/24 09:51:28;;;;;;;;;3.00;2.00;;;;;-147.17;100.00;-15917.19;4998160;28;51293;-76
2022/06/24 09:53:55;;;;;;;;;3.00;3.00;;;;;-147.17;100.00;-15917.19;5005718;28;51198;-79
2022/06/24 09:56:22;;;;;;;;;3.00;3.00;;;;;-147.17;100.00;-15917.19;5000467;28;51335;-78
2022/06/24 10:01:38;;;;;;;;;4.33;4.33;;;;;-147.17;100.00;-15917.19;4977821;28;51241;-75
2022/06/24 10:04:05;;;;;;;;;3.33;3.33;;;;;-147.17;100.00;-15917.19;4997303;28;51283;-76
2022/06/24 10:06:36;;;;;;;;;7.67;7.67;;;;;-147.17;100.00;-15917.19;4991242;28;51357;-75
2022/06/24 10:09:04;;;;;;;;;6.67;5.33;;;;;-147.17;100.00;-15917.19;4999317;28;51195;-81
2022/06/24 10:11:33;;;;;;;;;2.00;2.00;;;;;-147.17;100.00;-15917.19;4999507;28;51116;-79
2022/06/24 10:13:59;;;;;;;;;2.00;1.00;;;;;-147.17;100.00;-15917.19;4998025;28;51142;-77
2022/06/24 10:16:26;;;;;;;;;2.67;2.67;;;;;-147.17;100.00;-15917.19;5003899;28;51067;-79
2022/06/24 10:18:53;;;;;;;;;5.00;2.67;;;;;-147.17;100.00;-15917.19;5011587;28;51880;-79
2022/06/24 10:21:19;;;;;;;;;2.33;2.00;;;;;-147.17;100.00;-15917.19;4995972;28;51412;-77
2022/06/24 10:23:51;;;;;;;;;5.00;4.33;;;;;-147.17;100.00;-15420.25;5006012;28;51252;-78
2022/06/24 10:26:28;;;;;;;;;3.00;3.00;;;;;-147.17;100.00;-15668.00;5008181;28;51183;-74
2022/06/24 10:29:14;;;;;;;;;4.67;4.00;;;;;-147.17;100.00;-15668.00;5003553;28;51053;-75
2022/06/24 10:31:42;;;;;;;;;4.33;4.33;;;;;-147.17;100.00;-15420.25;4988716;28;51322;-73
2022/06/24 10:34:29;;;;;;;;;3.00;2.67;;;;;-147.17;100.00;-15420.25;4992799;28;51441;-75
2022/06/24 10:37:04;;;;;;;;;4.00;3.00;;;;;-147.17;100.00;-15668.00;4992777;28;51337;-76
2022/06/24 10:39:43;;;;;;;;;2.67;2.67;;;;;-147.17;100.00;-15668.00;4993427;28;52008;-76
2022/06/24 10:42:10;;;;;;;;;4.00;4.00;;;;;-147.17;100.00;-15915.72;4993555;28;51199;-77
2022/06/24 10:44:38;;;;;;;;;3.67;3.67;;;;;-147.17;100.00;-15915.72;5000787;28;51270;-77
2022/06/24 10:47:12;;;;;;;;;4.00;4.00;;;;;-147.17;100.00;-15915.72;4991109;28;52355;-75
2022/06/24 10:52:33;;;;;;;;;2.00;2.00;;;;;-147.17;100.00;-15917.19;4996141;28;51201;-76
2022/06/24 10:55:29;;;;;;;;;6.00;5.00;;;;;-147.17;100.00;-15915.72;4998327;28;52884;-77
2022/06/24 10:58:03;;;;;;;;;4.67;4.00;;;;;-147.17;100.00;-15915.72;5016518;28;51533;-77
2022/06/24 11:00:38;;;;;;;;;8.00;8.00;;;;;-147.17;100.00;-15915.72;4998202;28;51131;-77
2022/06/24 11:03:03;;;;;;;;;5.00;5.00;;;;;-147.17;100.00;-15915.72;4998509;28;51268;-75
2022/06/24 11:05:34;;;;;;;;;1.00;1.00;;;;;-147.17;100.00;-14676.94;5005414;28;52728;-75
2022/06/24 11:08:00;;;;;;;;;1.00;1.00;;;;;-147.17;100.00;-14181.31;4996136;28;51207;-74
2022/06/24 11:10:31;;;;;;;;;5.00;5.00;;;;;-147.17;100.00;-14181.31;4995179;28;52856;-79
2022/06/24 11:12:58;;;;;;;;;3.00;3.00;;;;;-147.17;100.00;-14181.31;4998264;28;51305;-80
2022/06/24 11:15:42;;;;;;;;;2.67;2.33;;;;;-147.17;100.00;-14181.31;4996090;28;51252;-79
2022/06/24 11:18:10;;;;;;;;;3.00;3.00;;;;;-147.17;100.00;-13933.50;4981713;28;51221;-74